Time;durP1;ratioP1;P1;durP2;ratioP2;P2;SDS_P1;SDS_P2;PMS_P1;PMS_P2;Temp;Humidity;BMP_temperature;BMP_pressure;BME280_temperature;BME280_humidity;BME280_pressure;Samples;Min_cycle;Max_cycle;Signal;HPM_P1;HPM_P2
2023/12/24 00:01:13;;;;;;;11.87;6.60;;;;;;;-143.21;77.17;72504.50;5014990;28;20285;-82
2023/12/24 00:03:39;;;;;;;10.70;6.27;;;;;;;-143.21;76.73;72506.50;5013652;28;20227;-81
2023/12/24 00:06:07;;;;;;;10.23;6.73;;;;;;;-143.21;76.82;72508.47;5012588;28;20230;-82
2023/12/24 00:08:35;;;;;;;15.03;6.97;;;;;;;-143.21;77.27;72512.44;5010789;28;20211;-83
2023/12/24 00:11:02;;;;;;;11.53;7.30;;;;;;;-143.21;77.03;72504.50;5013517;28;20744;-81
2023/12/24 00:13:29;;;;;;;15.80;6.97;;;;;;;-143.21;76.76;72502.53;5012957;28;20204;-81
2023/12/24 00:15:56;;;;;;;12.57;5.90;;;;;;;-143.21;76.54;72488.63;5011926;28;20600;-79
2023/12/24 00:18:24;;;;;;;13.77;6.00;;;;;;;-143.21;76.52;72492.59;5011831;28;20200;-82
2023/12/24 00:20:50;;;;;;;11.40;5.20;;;;;;;-143.21;75.33;72460.88;5013992;28;20206;-82
2023/12/24 00:23:17;;;;;;;13.30;5.83;;;;;;;-143.21;74.93;72447.00;5011968;28;20207;-78
2023/12/24 00:25:44;;;;;;;12.67;6.20;;;;;;;-143.21;74.80;72447.00;5009940;28;20215;-78
2023/12/24 00:28:11;;;;;;;13.70;5.80;;;;;;;-143.21;74.38;72425.19;5007537;28;20199;-76
2023/12/24 00:30:38;;;;;;;10.90;5.13;;;;;;;-143.21;73.24;72409.31;5003968;28;20674;-79
2023/12/24 00:33:05;;;;;;;8.57;4.27;;;;;;;-143.21;72.62;72399.41;5011181;28;20247;-78
2023/12/24 00:35:35;;;;;;;11.17;4.27;;;;;;;-143.21;72.44;72375.59;5007652;28;20208;-78
2023/12/24 00:38:02;;;;;;;9.43;4.40;;;;;;;-143.21;71.72;72361.72;5007403;28;20208;-76
2023/12/24 00:40:29;;;;;;;8.47;4.17;;;;;;;-143.21;71.26;72357.75;5009656;28;20207;-79
2023/12/24 00:42:55;;;;;;;9.57;4.47;;;;;;;-143.21;70.90;72363.69;5010287;28;20207;-78
2023/12/24 00:45:22;;;;;;;10.23;3.90;;;;;;;-143.21;70.60;72355.75;5010475;28;20646;-78
2023/12/24 00:47:49;;;;;;;8.93;4.37;;;;;;;-143.21;70.67;72351.78;5008472;28;20231;-78
2023/12/24 00:50:16;;;;;;;7.53;3.57;;;;;;;-143.21;68.37;72329.97;5008714;28;20214;-79
2023/12/24 00:52:44;;;;;;;11.37;4.03;;;;;;;-143.21;67.47;72308.16;5009357;28;20297;-79
2023/12/24 00:55:11;;;;;;;8.53;3.90;;;;;;;-143.21;67.48;72304.19;5010993;28;20199;-79
2023/12/24 00:57:38;;;;;;;5.30;3.03;;;;;;;-143.21;67.31;72310.16;5009307;28;20592;-79
2023/12/24 01:00:05;;;;;;;6.63;3.30;;;;;;;-143.21;67.14;72318.09;5008997;28;20286;-79
2023/12/24 01:02:32;;;;;;;7.90;3.17;;;;;;;-143.21;67.32;72320.06;5009940;28;20654;-79
2023/12/24 01:04:59;;;;;;;8.37;3.40;;;;;;;-143.21;65.83;72306.19;5009993;28;20223;-78
2023/12/24 01:07:26;;;;;;;6.53;3.20;;;;;;;-143.21;65.16;72304.19;5010196;28;20204;-80
2023/12/24 01:09:54;;;;;;;4.17;2.50;;;;;;;-143.21;65.06;72328.00;5008634;28;20202;-79
2023/12/24 01:12:21;;;;;;;6.53;3.10;;;;;;;-143.21;64.91;72337.91;5009332;28;20213;-79
2023/12/24 01:14:47;;;;;;;5.70;2.80;;;;;;;-143.21;65.46;72365.69;5009363;28;20625;-80
2023/12/24 01:17:15;;;;;;;6.50;3.00;;;;;;;-143.21;65.14;72351.78;5011434;28;21065;-80
2023/12/24 01:19:42;;;;;;;6.17;3.07;;;;;;;-143.21;65.60;72349.81;5010010;28;20293;-79
2023/12/24 01:22:08;;;;;;;6.07;2.90;;;;;;;-143.21;65.77;72357.75;5008294;28;20261;-78
2023/12/24 01:24:35;;;;;;;8.90;3.27;;;;;;;-143.21;65.89;72363.69;5008647;28;20286;-78
2023/12/24 01:27:04;;;;;;;7.67;3.30;;;;;;;-143.21;66.06;72387.50;5010072;28;20215;-77
2023/12/24 01:29:30;;;;;;;6.73;2.90;;;;;;;-143.21;66.21;72397.41;5009134;28;20203;-78
2023/12/24 01:31:57;;;;;;;6.27;2.60;;;;;;;-143.21;65.90;72393.44;5008567;28;20289;-79
2023/12/24 01:34:24;;;;;;;6.97;3.00;;;;;;;-143.21;64.30;72389.47;5009340;28;20195;-80
2023/12/24 01:36:51;;;;;;;5.80;3.47;;;;;;;-143.21;64.51;72397.41;5009541;28;20254;-79
2023/12/24 01:39:20;;;;;;;6.67;3.27;;;;;;;-143.21;63.53;72409.31;5009697;28;20211;-78
2023/12/24 01:41:47;;;;;;;4.57;2.80;;;;;;;-143.21;63.81;72407.31;5005128;28;20215;-79
2023/12/24 01:44:15;;;;;;;8.43;3.63;;;;;;;-143.21;63.69;72423.19;5007808;28;20243;-78
2023/12/24 01:46:43;;;;;;;8.10;3.73;;;;;;;-143.21;64.16;72445.00;5007926;28;20219;-78
2023/12/24 01:49:13;;;;;;;5.47;2.80;;;;;;;-143.21;63.62;72435.09;5009643;28;20298;-78
2023/12/24 01:51:40;;;;;;;3.47;2.70;;;;;;;-143.21;63.02;72421.22;5009177;28;20203;-78
2023/12/24 01:54:08;;;;;;;4.60;2.70;;;;;;;-143.21;63.03;72431.13;5007245;28;20295;-78
2023/12/24 01:56:35;;;;;;;4.67;2.30;;;;;;;-143.21;62.22;72431.13;5008312;28;20269;-77
2023/12/24 01:59:03;;;;;;;5.57;2.63;;;;;;;-143.21;62.94;72435.09;5007766;28;20218;-78
2023/12/24 02:01:32;;;;;;;3.70;2.67;;;;;;;-143.21;62.99;72437.06;5009637;28;20696;-78
2023/12/24 02:03:59;;;;;;;4.67;2.80;;;;;;;-143.21;62.90;72437.06;5005671;28;20274;-79
2023/12/24 02:06:27;;;;;;;4.10;2.67;;;;;;;-143.21;63.15;72437.06;5007340;28;20203;-77
2023/12/24 02:08:55;;;;;;;5.50;2.90;;;;;;;-143.21;63.93;72439.06;5006920;28;20306;-78
2023/12/24 02:11:22;;;;;;;5.37;2.73;;;;;;;-143.21;62.78;72443.03;5009915;28;20203;-78
2023/12/24 02:13:49;;;;;;;5.10;2.23;;;;;;;-143.21;62.65;72454.91;5008219;28;20203;-77
2023/12/24 02:16:19;;;;;;;6.10;2.53;;;;;;;-143.21;62.35;72452.94;5007024;28;20753;-78
2023/12/24 02:18:48;;;;;;;4.33;2.77;;;;;;;-143.21;62.42;72456.91;5007218;28;20230;-77
2023/12/24 02:21:16;;;;;;;5.17;3.00;;;;;;;-143.21;62.59;72454.91;5006595;28;21736;-77
2023/12/24 02:23:43;;;;;;;5.63;3.00;;;;;;;-143.21;63.39;72458.88;5009023;28;20215;-77
2023/12/24 02:26:20;;;;;;;6.10;3.10;;;;;;;-143.21;63.34;72470.78;5006331;28;20277;-78
2023/12/24 02:28:52;;;;;;;5.97;3.53;;;;;;;-143.21;63.41;72468.81;5002164;28;20703;-76
2023/12/24 02:31:24;;;;;;;7.23;3.93;;;;;;;-143.21;64.23;72496.56;5000362;28;20235;-77
2023/12/24 02:33:53;;;;;;;5.47;3.80;;;;;;;-143.21;65.22;72538.22;5002858;28;20200;-78
2023/12/24 02:36:22;;;;;;;9.70;4.53;;;;;;;-143.21;65.69;72546.16;5005679;28;20210;-78
2023/12/24 02:38:49;;;;;;;11.30;5.03;;;;;;;-143.21;65.18;72538.22;5002709;28;20211;-79
2023/12/24 02:41:16;;;;;;;10.30;5.20;;;;;;;-143.21;65.17;72534.25;5004144;28;20215;-78
2023/12/24 02:43:43;;;;;;;9.77;4.70;;;;;;;-143.21;64.85;72536.25;5004414;28;20215;-78
2023/12/24 02:46:09;;;;;;;9.03;4.30;;;;;;;-143.21;64.46;72538.22;4998349;28;20588;-78
2023/12/24 02:48:36;;;;;;;6.23;3.90;;;;;;;-143.21;64.80;72548.13;5003382;28;20285;-78
2023/12/24 02:51:04;;;;;;;5.33;3.20;;;;;;;-143.21;64.62;72556.06;5003781;28;20195;-80
2023/12/24 02:53:32;;;;;;;7.03;3.97;;;;;;;-143.21;65.03;72577.88;5007956;28;20204;-79
2023/12/24 02:55:59;;;;;;;8.30;4.83;;;;;;;-143.21;64.99;72579.88;5002877;28;20211;-79
2023/12/24 02:58:26;;;;;;;8.23;4.47;;;;;;;-143.21;64.83;72571.94;5009273;28;20195;-78
2023/12/24 03:00:53;;;;;;;5.63;3.50;;;;;;;-143.21;64.43;72560.03;5006868;28;20222;-79
2023/12/24 03:03:20;;;;;;;5.17;3.20;;;;;;;-143.21;63.98;72560.03;5005519;28;20317;-80
2023/12/24 03:05:47;;;;;;;4.30;2.90;;;;;;;-143.21;63.70;72542.19;5005614;28;20223;-79
2023/12/24 03:08:14;;;;;;;4.23;2.60;;;;;;;-143.21;63.87;72560.03;5008049;28;20211;-80
2023/12/24 03:10:42;;;;;;;6.37;2.87;;;;;;;-143.21;64.22;72581.84;5007669;28;20234;-80
2023/12/24 03:13:09;;;;;;;5.10;3.10;;;;;;;-143.21;64.88;72605.66;5007602;28;20199;-79
2023/12/24 03:15:36;;;;;;;6.20;3.23;;;;;;;-143.21;65.12;72617.56;5007177;28;20207;-79
2023/12/24 03:18:03;;;;;;;5.00;3.30;;;;;;;-143.21;65.29;72613.59;5007689;28;20642;-79
2023/12/24 03:20:30;;;;;;;6.10;3.50;;;;;;;-143.21;65.10;72605.66;5008388;28;20207;-79
2023/12/24 03:22:56;;;;;;;5.70;3.50;;;;;;;-143.21;64.54;72597.72;5008162;28;20579;-78
2023/12/24 03:25:23;;;;;;;7.47;3.10;;;;;;;-143.21;64.09;72583.84;5004383;28;20591;-78
2023/12/24 03:27:51;;;;;;;4.80;3.10;;;;;;;-143.21;63.96;72599.69;5005628;28;20207;-77
2023/12/24 03:30:18;;;;;;;7.33;2.83;;;;;;;-143.21;64.24;72611.59;5008366;28;20211;-78
2023/12/24 03:32:45;;;;;;;3.53;2.87;;;;;;;-143.21;65.19;72625.47;5005184;28;21641;-78
2023/12/24 03:35:12;;;;;;;4.90;3.20;;;;;;;-143.21;64.91;72629.44;5005971;28;20269;-79
2023/12/24 03:37:39;;;;;;;5.03;3.40;;;;;;;-143.21;65.10;72621.53;5004564;28;20203;-79
2023/12/24 03:40:06;;;;;;;5.17;2.97;;;;;;;-143.21;64.84;72617.56;5006549;28;20207;-79
2023/12/24 03:42:33;;;;;;;5.40;3.17;;;;;;;-143.21;64.67;72613.59;5009017;28;20203;-79
2023/12/24 03:45:02;;;;;;;4.80;3.20;;;;;;;-143.21;64.43;72609.63;5006886;28;20216;-80
2023/12/24 03:47:29;;;;;;;6.93;3.70;;;;;;;-143.21;64.32;72605.66;5002742;28;20286;-80
2023/12/24 03:49:56;;;;;;;10.93;3.70;;;;;;;-143.21;63.50;72597.72;5004550;28;20208;-79
2023/12/24 03:52:23;;;;;;;5.97;3.60;;;;;;;-143.21;63.90;72601.69;5006041;28;20202;-79
2023/12/24 03:54:49;;;;;;;8.07;4.37;;;;;;;-143.21;63.48;72605.66;5005394;28;20206;-78
2023/12/24 03:57:16;;;;;;;6.43;3.30;;;;;;;-143.21;63.16;72609.63;5004491;28;20206;-78
2023/12/24 03:59:43;;;;;;;6.40;4.03;;;;;;;-143.21;63.29;72601.69;5005731;28;20214;-79
2023/12/24 04:02:11;;;;;;;6.83;3.90;;;;;;;-143.21;63.02;72599.69;5007211;28;20207;-78
2023/12/24 04:04:38;;;;;;;5.20;3.30;;;;;;;-143.21;63.09;72605.66;5006275;28;20223;-79
2023/12/24 04:07:05;;;;;;;3.77;2.50;;;;;;;-143.21;62.94;72617.56;5005893;28;20195;-79
2023/12/24 04:09:33;;;;;;;3.53;2.70;;;;;;;-143.21;63.05;72607.63;5006780;28;20211;-79
2023/12/24 04:12:00;;;;;;;3.70;2.90;;;;;;;-143.21;63.44;72619.53;5005456;28;20381;-79
2023/12/24 04:14:27;;;;;;;5.30;2.87;;;;;;;-143.21;63.65;72627.47;5004474;28;20196;-78
2023/12/24 04:16:53;;;;;;;3.40;2.60;;;;;;;-143.21;63.73;72643.34;5002924;28;20601;-80
2023/12/24 04:19:22;;;;;;;3.33;2.67;;;;;;;-143.21;64.24;72641.34;5003366;28;20203;-80
2023/12/24 04:21:49;;;;;;;4.17;2.67;;;;;;;-143.21;63.86;72629.44;5008322;28;20223;-79
2023/12/24 04:24:16;;;;;;;6.53;3.60;;;;;;;-143.21;63.98;72631.44;5011610;28;20215;-78
2023/12/24 04:26:43;;;;;;;6.27;3.90;;;;;;;-143.21;64.31;72641.34;5008918;28;20227;-78
2023/12/24 04:29:10;;;;;;;8.07;4.30;;;;;;;-143.21;64.88;72663.16;5008948;28;20285;-78
2023/12/24 04:31:39;;;;;;;8.93;5.03;;;;;;;-143.21;66.14;72706.81;5008546;28;20325;-79
2023/12/24 04:34:06;;;;;;;7.63;4.97;;;;;;;-143.21;65.95;72696.88;5009229;28;20657;-78
2023/12/24 04:36:34;;;;;;;8.40;5.17;;;;;;;-143.21;66.14;72688.94;5010060;28;20200;-78
2023/12/24 04:39:01;;;;;;;9.30;5.33;;;;;;;-143.21;65.64;72679.03;5008836;28;20195;-79
2023/12/24 04:41:28;;;;;;;9.27;5.20;;;;;;;-143.21;65.37;72659.19;5006018;28;20206;-79
2023/12/24 04:43:55;;;;;;;8.03;4.67;;;;;;;-143.21;64.93;72649.28;5004200;28;20294;-78
2023/12/24 04:46:22;;;;;;;7.97;4.73;;;;;;;-143.21;64.89;72639.38;5009744;28;20219;-81
2023/12/24 04:48:49;;;;;;;6.00;3.60;;;;;;;-143.21;64.40;72637.38;5008826;28;20203;-80
2023/12/24 04:51:16;;;;;;;4.80;3.50;;;;;;;-143.21;64.94;72657.22;5009326;28;20207;-81
2023/12/24 04:53:44;;;;;;;4.40;3.13;;;;;;;-143.21;65.72;72677.06;5006177;28;20290;-79
2023/12/24 04:56:20;;;;;;;5.20;3.60;;;;;;;-143.21;65.91;72686.97;5009853;28;20199;-79
2023/12/24 04:58:46;;;;;;;8.17;4.17;;;;;;;-143.21;66.03;72683.00;5007671;28;20195;-79
2023/12/24 05:01:15;;;;;;;6.67;4.47;;;;;;;-143.21;65.46;72673.09;5006856;28;20203;-79
2023/12/24 05:03:42;;;;;;;10.13;5.20;;;;;;;-143.21;65.12;72667.13;5004421;28;20222;-79
2023/12/24 05:06:09;;;;;;;12.47;4.97;;;;;;;-143.21;64.64;72665.16;5003290;28;20222;-79
2023/12/24 05:08:36;;;;;;;7.30;4.07;;;;;;;-143.21;64.68;72663.16;5009629;28;20299;-82
2023/12/24 05:11:06;;;;;;;7.07;4.00;;;;;;;-143.21;65.63;72692.91;5008738;28;20194;-81
2023/12/24 05:13:33;;;;;;;11.47;6.30;;;;;;;-143.21;66.11;72718.69;5010179;28;20202;-79
2023/12/24 05:15:59;;;;;;;15.00;7.70;;;;;;;-143.21;66.63;72720.69;5003670;28;20199;-79
2023/12/24 05:18:26;;;;;;;13.90;7.83;;;;;;;-143.21;65.76;72704.81;5009102;28;20204;-79
2023/12/24 05:20:53;;;;;;;11.47;6.13;;;;;;;-143.21;65.99;72702.84;5009657;28;20199;-80
2023/12/24 05:23:21;;;;;;;7.27;4.30;;;;;;;-143.21;65.22;72692.91;5010429;28;20215;-81
2023/12/24 05:25:47;;;;;;;8.90;4.40;;;;;;;-143.21;64.83;72669.13;5012208;28;20219;-81
2023/12/24 05:28:17;;;;;;;7.27;5.07;;;;;;;-143.21;64.44;72659.19;5009816;28;20214;-79
2023/12/24 05:30:44;;;;;;;9.87;5.33;;;;;;;-143.21;64.48;72661.19;5010671;28;20211;-79
2023/12/24 05:33:11;;;;;;;7.13;4.80;;;;;;;-143.21;64.30;72651.28;5003437;28;20218;-79
2023/12/24 05:35:38;;;;;;;6.17;3.83;;;;;;;-143.21;63.67;72635.41;5002318;28;20674;-77
2023/12/24 05:38:05;;;;;;;5.90;3.93;;;;;;;-143.21;64.08;72625.47;5005958;28;20207;-78
2023/12/24 05:40:32;;;;;;;5.63;3.50;;;;;;;-143.21;63.62;72621.53;5010418;28;20199;-80
2023/12/24 05:42:58;;;;;;;7.07;4.20;;;;;;;-143.21;64.12;72639.38;5007373;28;20196;-79
2023/12/24 05:45:26;;;;;;;6.50;3.80;;;;;;;-143.21;64.23;72637.38;5009544;28;20223;-80
2023/12/24 05:47:53;;;;;;;4.83;3.70;;;;;;;-143.21;63.51;72629.44;5006216;28;20207;-81
2023/12/24 05:50:20;;;;;;;8.73;4.70;;;;;;;-143.21;63.04;72625.47;5007481;28;20208;-80
2023/12/24 05:52:47;;;;;;;8.50;5.47;;;;;;;-143.21;63.46;72623.50;5007952;28;20291;-80
2023/12/24 05:55:13;;;;;;;9.03;5.40;;;;;;;-143.21;63.69;72617.56;5008841;28;20208;-80
2023/12/24 05:57:40;;;;;;;8.53;5.80;;;;;;;-143.21;63.40;72611.59;5008619;28;20210;-80
2023/12/24 06:00:09;;;;;;;12.20;7.13;;;;;;;-143.21;63.44;72615.56;5008408;28;20251;-81
2023/12/24 06:02:37;;;;;;;14.27;7.13;;;;;;;-143.21;64.09;72653.25;5010329;28;20290;-80
2023/12/24 06:05:04;;;;;;;13.73;8.10;;;;;;;-143.21;65.05;72683.00;5010118;28;20586;-81
2023/12/24 06:07:31;;;;;;;14.13;8.37;;;;;;;-143.21;65.62;72696.88;5008801;28;20199;-80
2023/12/24 06:09:58;;;;;;;14.17;8.37;;;;;;;-143.21;65.80;72694.91;5009619;28;20204;-81
2023/12/24 06:12:25;;;;;;;13.90;8.63;;;;;;;-143.21;65.20;72688.94;5009138;28;20215;-81
2023/12/24 06:14:51;;;;;;;13.17;7.53;;;;;;;-143.21;65.27;72694.91;5010784;28;20203;-80
2023/12/24 06:17:18;;;;;;;9.17;5.90;;;;;;;-143.21;65.46;72683.00;5007461;28;20662;-79
2023/12/24 06:19:46;;;;;;;9.13;4.33;;;;;;;-143.21;64.94;72696.88;5006405;28;20219;-80
2023/12/24 06:22:14;;;;;;;7.00;3.87;;;;;;;-143.21;65.25;72696.88;5006957;28;20207;-79
2023/12/24 06:24:41;;;;;;;7.60;4.47;;;;;;;-143.21;65.36;72704.81;5008654;28;20215;-78
2023/12/24 06:27:08;;;;;;;8.00;5.10;;;;;;;-143.21;65.55;72710.78;5007155;28;20242;-79
2023/12/24 06:29:37;;;;;;;9.23;5.03;;;;;;;-143.21;65.12;72694.91;5007372;28;20289;-80
2023/12/24 06:32:05;;;;;;;5.70;3.40;;;;;;;-143.21;64.51;72677.06;5006301;28;20258;-79
2023/12/24 06:34:31;;;;;;;7.53;4.83;;;;;;;-143.21;64.26;72653.25;5007359;28;20222;-79
2023/12/24 06:36:59;;;;;;;7.90;4.90;;;;;;;-143.21;63.45;72645.31;5009345;28;20667;-79
2023/12/24 06:39:26;;;;;;;6.67;4.33;;;;;;;-143.21;63.07;72633.41;5008951;28;20210;-81
2023/12/24 06:41:54;;;;;;;8.67;4.20;;;;;;;-143.21;63.04;72625.47;5008628;28;20236;-81
2023/12/24 06:44:22;;;;;;;6.50;3.50;;;;;;;-143.21;62.87;72617.56;5008643;28;20460;-80
2023/12/24 06:46:48;;;;;;;7.57;4.50;;;;;;;-143.21;63.17;72619.53;5009270;28;20234;-81
2023/12/24 06:49:15;;;;;;;7.53;4.80;;;;;;;-143.21;62.65;72629.44;5000164;28;20200;-79
2023/12/24 06:51:42;;;;;;;6.83;4.10;;;;;;;-143.21;62.78;72629.44;5006548;28;20309;-78
2023/12/24 06:54:13;;;;;;;10.60;5.00;;;;;;;-143.21;62.99;72633.41;5001000;28;20217;-79
2023/12/24 06:56:40;;;;;;;8.47;5.13;;;;;;;-143.21;62.58;72625.47;5005961;28;20258;-79
2023/12/24 06:59:07;;;;;;;11.00;5.47;;;;;;;-143.21;62.24;72623.50;5008059;28;20253;-80
2023/12/24 07:01:33;;;;;;;10.40;5.53;;;;;;;-143.21;62.44;72653.25;5006871;28;20206;-80
2023/12/24 07:04:00;;;;;;;8.40;5.07;;;;;;;-143.21;63.27;72681.03;5008260;28;20199;-81
2023/12/24 07:06:30;;;;;;;12.20;6.33;;;;;;;-143.21;63.41;72688.94;5009159;28;20237;-80
2023/12/24 07:08:57;;;;;;;13.07;7.20;;;;;;;-143.21;63.71;72679.03;5009833;28;20246;-81
2023/12/24 07:11:25;;;;;;;11.03;6.00;;;;;;;-143.21;62.73;72665.16;5006012;28;20198;-75
2023/12/24 07:13:52;;;;;;;7.83;4.83;;;;;;;-143.21;62.16;72639.38;5001859;28;20261;-77
2023/12/24 07:16:18;;;;;;;10.53;6.00;;;;;;;-143.21;61.52;72643.34;5001983;28;20195;-76
2023/12/24 07:18:45;;;;;;;11.13;6.47;;;;;;;-143.21;62.26;72653.25;5005675;28;20221;-77
2023/12/24 07:21:12;;;;;;;13.83;7.70;;;;;;;-143.21;62.57;72667.13;5001355;28;20569;-77
2023/12/24 07:23:41;;;;;;;12.60;7.73;;;;;;;-143.21;62.97;72653.25;5001919;28;20688;-76
2023/12/24 07:26:08;;;;;;;12.63;7.67;;;;;;;-143.21;62.65;72645.31;4999007;28;20211;-75
2023/12/24 07:28:37;;;;;;;12.40;6.70;;;;;;;-143.21;61.98;72641.34;5000515;28;20203;-76
2023/12/24 07:31:04;;;;;;;11.80;7.60;;;;;;;-143.21;62.16;72645.31;5003539;28;20199;-76
2023/12/24 07:33:34;;;;;;;17.53;9.37;;;;;;;-143.21;61.31;72627.47;5003739;28;20195;-76
2023/12/24 07:36:00;;;;;;;18.17;9.37;;;;;;;-143.21;61.12;72609.63;5003903;28;20215;-75
2023/12/24 07:38:29;;;;;;;17.13;8.40;;;;;;;-143.21;60.68;72597.72;5004140;28;20203;-75
2023/12/24 07:40:56;;;;;;;14.50;8.93;;;;;;;-143.21;60.76;72593.75;5005480;28;20332;-76
2023/12/24 07:43:23;;;;;;;11.37;6.47;;;;;;;-143.21;59.92;72579.88;5005330;28;20199;-91
2023/12/24 07:45:52;;;;;;;12.53;8.03;;;;;;;-143.21;59.60;72571.94;5007811;28;20223;-80
2023/12/24 07:48:19;;;;;;;11.03;6.83;;;;;;;-143.21;59.68;72560.03;5006400;28;20234;-80
2023/12/24 07:50:46;;;;;;;10.93;6.70;;;;;;;-143.21;59.54;72546.16;5005195;28;20215;-75
2023/12/24 07:53:12;;;;;;;11.40;6.07;;;;;;;-143.21;59.53;72532.28;5005444;28;20215;-75
2023/12/24 07:55:41;;;;;;;13.03;7.20;;;;;;;-143.21;59.79;72526.31;5001995;28;20661;-74
2023/12/24 07:58:08;;;;;;;11.40;6.63;;;;;;;-143.21;59.73;72518.38;5008901;28;20207;-79
2023/12/24 08:00:34;;;;;;;13.27;7.90;;;;;;;-143.21;59.33;72522.34;5010815;28;20210;-81
2023/12/24 08:03:03;;;;;;;4.90;3.40;;;;;;;-143.21;58.18;72512.44;5011745;28;20207;-81
2023/12/24 08:05:30;;;;;;;3.53;2.30;;;;;;;-143.21;58.17;72512.44;5012616;28;20211;-81
2023/12/24 08:07:58;;;;;;;3.63;2.43;;;;;;;-143.21;58.37;72518.38;5010930;28;20298;-79
2023/12/24 08:10:25;;;;;;;4.57;2.80;;;;;;;-143.21;58.42;72524.34;5012302;28;20203;-83
2023/12/24 08:12:52;;;;;;;2.40;1.93;;;;;;;-143.21;58.24;72510.44;5010427;28;20218;-81
2023/12/24 08:15:21;;;;;;;1.87;1.60;;;;;;;-143.21;57.55;72488.63;5011839;28;20203;-80
2023/12/24 08:17:48;;;;;;;2.77;2.10;;;;;;;-143.21;57.25;72466.81;5011328;28;20298;-82
2023/12/24 08:20:20;;;;;;;4.17;2.63;;;;;;;-143.21;57.45;72474.75;5011870;28;20638;-80
2023/12/24 08:22:48;;;;;;;7.10;3.30;;;;;;;-143.21;57.19;72466.81;5010813;28;20216;-84
2023/12/24 08:25:14;;;;;;;5.97;3.77;;;;;;;-143.21;57.15;72456.91;5011505;28;20269;-81
2023/12/24 08:27:45;;;;;;;7.97;4.17;;;;;;;-143.21;56.66;72450.97;5016489;28;20314;-80
2023/12/24 08:30:13;;;;;;;7.70;4.83;;;;;;;-143.21;56.69;72445.00;5014035;28;20230;-82
2023/12/24 08:32:40;;;;;;;12.43;5.23;;;;;;;-143.21;56.35;72439.06;5010022;28;20235;-81
2023/12/24 08:35:07;;;;;;;13.47;7.03;;;;;;;-143.21;56.64;72443.03;5011427;28;20203;-83
2023/12/24 08:37:36;;;;;;;12.83;7.07;;;;;;;-143.21;56.39;72458.88;5013473;28;20211;-80
2023/12/24 08:40:03;;;;;;;8.07;5.03;;;;;;;-143.21;56.73;72458.88;5011141;28;20619;-80
2023/12/24 08:42:30;;;;;;;9.27;4.80;;;;;;;-143.21;56.38;72460.88;5011331;28;20217;-82
2023/12/24 08:44:57;;;;;;;10.73;6.73;;;;;;;-143.21;56.68;72468.81;5010029;28;20208;-81
2023/12/24 08:47:24;;;;;;;16.87;6.63;;;;;;;-143.21;57.38;72480.72;5008190;28;20630;-80
2023/12/24 08:49:51;;;;;;;9.17;5.30;;;;;;;-143.21;57.02;72468.81;5011138;28;20649;-82
2023/12/24 08:52:17;;;;;;;7.33;4.80;;;;;;;-143.21;57.34;72474.75;5009487;28;21361;-79
2023/12/24 08:54:45;;;;;;;9.17;5.53;;;;;;;-143.21;57.13;72470.78;5008063;28;20218;-81
2023/12/24 08:57:12;;;;;;;8.53;4.73;;;;;;;-143.21;56.50;72450.97;5004681;28;20203;-83
2023/12/24 08:59:39;;;;;;;8.47;5.70;;;;;;;-143.21;56.04;72435.09;5010542;28;20204;-84
2023/12/24 09:02:07;;;;;;;12.03;6.37;;;;;;;-143.21;56.25;72421.22;5006610;28;20670;-75
2023/12/24 09:04:35;;;;;;;7.73;4.77;;;;;;;-143.21;55.95;72411.28;5002793;28;20220;-75
2023/12/24 09:07:02;;;;;;;6.30;4.30;;;;;;;-143.21;55.28;72391.47;5002430;28;20227;-76
2023/12/24 09:09:29;;;;;;;5.47;3.53;;;;;;;-143.21;54.02;72389.47;5010239;28;20681;-82
2023/12/24 09:11:57;;;;;;;6.57;4.30;;;;;;;-143.21;54.44;72385.50;5010109;28;20318;-82
2023/12/24 09:14:24;;;;;;;5.57;3.47;;;;;;;-143.21;54.11;72385.50;5009991;28;20203;-80
2023/12/24 09:16:52;;;;;;;4.97;2.50;;;;;;;-143.21;54.41;72397.41;5009194;28;20207;-81
2023/12/24 09:19:22;;;;;;;5.43;3.77;;;;;;;-143.21;54.61;72395.44;5012582;28;20278;-84
2023/12/24 09:21:49;;;;;;;3.53;2.47;;;;;;;-143.21;54.43;72389.47;5015402;28;20596;-83
2023/12/24 09:24:16;;;;;;;2.97;2.10;;;;;;;-143.21;53.72;72387.50;5013236;28;20208;-82
2023/12/24 09:26:43;;;;;;;3.50;2.40;;;;;;;-143.21;54.51;72399.41;5010404;28;20273;-83
2023/12/24 09:29:20;;;;;;;5.70;3.10;;;;;;;-143.21;56.16;72381.53;5010768;28;20195;-83
2023/12/24 09:31:47;;;;;;;6.93;3.10;;;;;;;-143.21;55.33;72359.72;5007914;28;20235;-76
2023/12/24 09:34:14;;;;;;;5.83;3.50;;;;;;;-143.21;55.69;72377.56;4999138;28;20203;-77
2023/12/24 09:36:41;;;;;;;6.70;2.47;;;;;;;-143.21;54.12;72367.66;5001004;28;20194;-75
2023/12/24 09:39:08;;;;;;;6.37;2.70;;;;;;;-143.21;53.77;72357.75;5003535;28;20203;-81
2023/12/24 09:41:37;;;;;;;5.57;3.30;;;;;;;-143.21;53.92;72347.84;5006675;28;20207;-80
2023/12/24 09:44:04;;;;;;;7.67;4.63;;;;;;;-143.21;53.98;72333.94;5007355;28;20203;-79
2023/12/24 09:46:32;;;;;;;8.07;3.40;;;;;;;-143.21;53.62;72304.19;5004266;28;20219;-79
2023/12/24 09:48:59;;;;;;;7.90;4.00;;;;;;;-143.21;53.31;72304.19;5000630;28;20200;-79
2023/12/24 09:51:26;;;;;;;8.40;4.77;;;;;;;-143.21;53.46;72308.16;5000897;28;20635;-78
2023/12/24 09:53:56;;;;;;;8.07;3.83;;;;;;;-143.21;52.81;72290.31;5005309;28;20589;-73
2023/12/24 09:56:24;;;;;;;7.07;3.77;;;;;;;-143.21;52.71;72240.75;5005002;28;20196;-80
2023/12/24 09:58:51;;;;;;;6.10;3.60;;;;;;;-143.21;51.30;72147.53;5002822;28;20206;-82
2023/12/24 10:01:18;;;;;;;6.87;3.60;;;;;;;-143.21;50.25;72062.25;4996708;28;20210;-81
2023/12/24 10:03:46;;;;;;;6.33;2.40;;;;;;;-143.21;48.31;71935.34;4995217;28;20211;-82
2023/12/24 10:06:14;;;;;;;3.73;2.10;;;;;;;-143.21;46.56;71796.56;5007741;28;20204;-82
2023/12/24 10:08:41;;;;;;;2.90;2.00;;;;;;;-143.21;43.58;71630.00;5002539;28;20596;-82
2023/12/24 10:11:16;;;;;;;3.60;2.17;;;;;;;-143.21;38.88;71511.03;5003762;28;20195;-81
2023/12/24 10:13:44;;;;;;;4.17;2.40;;;;;;;-143.21;38.02;71388.09;4997014;28;20210;-85
2023/12/24 10:16:11;;;;;;;5.00;2.43;;;;;;;-143.21;35.40;71283.03;4997517;28;20291;-82
2023/12/24 10:18:47;;;;;;;8.10;3.42;;;;;;;-143.21;33.82;71217.59;5004769;28;20732;-81
2023/12/24 10:21:18;;;;;;;6.63;3.22;;;;;;;-143.21;33.29;71213.66;5002077;28;20263;-81
2023/12/24 10:23:45;;;;;;;3.78;2.40;;;;;;;-143.21;32.62;71150.22;5000203;28;20207;-81
2023/12/24 10:26:12;;;;;;;4.22;2.50;;;;;;;-143.21;32.52;71108.56;5002641;28;20222;-82
2023/12/24 10:28:48;;;;;;;3.88;2.30;;;;;;;-143.21;31.12;71035.22;5002551;28;20224;-82
2023/12/24 10:31:15;;;;;;;6.20;3.45;;;;;;;-143.21;31.28;71062.97;5003099;28;20237;-83
2023/12/24 10:33:42;;;;;;;5.43;2.88;;;;;;;-143.21;31.14;71053.06;5005294;28;20199;-86
2023/12/24 10:36:09;;;;;;;2.95;2.08;;;;;;;-143.21;31.13;71031.25;5006421;28;20222;-79
2023/12/24 10:38:38;;;;;;;5.80;2.90;;;;;;;-143.21;32.10;70977.72;5001955;28;20923;-77
2023/12/24 10:41:06;;;;;;;5.60;2.45;;;;;;;-143.21;30.85;70961.88;5005705;28;20634;-82
2023/12/24 10:43:34;;;;;;;6.78;2.20;;;;;;;-143.21;30.25;70963.84;5002951;28;20202;-84
2023/12/24 10:46:01;;;;;;;5.15;3.00;;;;;;;-143.21;30.49;70987.66;5003103;28;20199;-84
2023/12/24 10:48:28;;;;;;;6.53;3.40;;;;;;;-143.21;30.49;71019.38;5003222;28;20234;-81
2023/12/24 10:50:54;;;;;;;9.65;2.85;;;;;;;-143.21;30.94;71068.94;4999506;28;20244;-77
2023/12/24 10:53:21;;;;;;;4.85;2.85;;;;;;;-143.21;31.48;71084.78;4997409;28;20211;-76
2023/12/24 10:56:00;;;;;;;5.75;3.00;;;;;;;-143.21;31.07;71017.38;4996541;28;20651;-76
2023/12/24 10:58:36;;;;;;;5.93;2.40;;;;;;;-143.21;30.57;71015.41;5000467;28;20191;-77
2023/12/24 11:01:07;;;;;;;5.55;3.15;;;;;;;-143.21;31.05;71114.53;4999723;28;20238;-75
2023/12/24 11:03:47;;;;;;;6.00;2.60;;;;;;;-143.21;32.98;71310.78;5003400;28;20211;-75
2023/12/24 11:06:47;;;;;;;6.82;3.80;;;;;;;-143.21;34.53;71435.69;5004758;28;20519;-76
2023/12/24 11:09:47;;;;;;;9.02;4.57;;;;;;;-143.21;35.41;71520.94;4999301;28;20321;-75
2023/12/24 11:12:30;;;;;;;10.60;3.55;;;;;;;-143.21;36.06;71538.78;5000816;28;21376;-76
2023/12/24 11:14:57;;;;;;;6.90;3.20;;;;;;;-143.21;36.82;71620.09;5000918;28;20288;-77
2023/12/24 11:17:51;;;;;;;8.07;4.00;;;;;;;-143.21;37.63;71663.72;4996816;28;20196;-76